sensor_id;sensor_type;location;lat;lon;timestamp;pressure;altitude;pressure_sealevel;temperature
73734;BMP280;62039;50.000;9.064;2024-03-02T00:00:56;99182.34;;;5.99
73734;BMP280;62039;50.000;9.064;2024-03-02T00:03:23;99190.13;;;5.99
73734;BMP280;62039;50.000;9.064;2024-03-02T00:05:51;99189.31;;;5.98
73734;BMP280;62039;50.000;9.064;2024-03-02T00:08:23;99194.34;;;6.00
73734;BMP280;62039;50.000;9.064;2024-03-02T00:10:57;99183.16;;;5.99
73734;BMP280;62039;50.000;9.064;2024-03-02T00:13:24;99189.97;;;6.00
73734;BMP280;62039;50.000;9.064;2024-03-02T00:15:52;99189.16;;;6.00
73734;BMP280;62039;50.000;9.064;2024-03-02T00:18:23;99188.34;;;5.99
73734;BMP280;62039;50.000;9.064;2024-03-02T00:20:53;99183.16;;;5.99
73734;BMP280;62039;50.000;9.064;2024-03-02T00:23:20;99189.16;;;6.00
73734;BMP280;62039;50.000;9.064;2024-03-02T00:25:49;99177.81;;;6.01
73734;BMP280;62039;50.000;9.064;2024-03-02T00:28:23;99176.19;;;6.00
73734;BMP280;62039;50.000;9.064;2024-03-02T00:31:02;99182.34;;;5.99
73734;BMP280;62039;50.000;9.064;2024-03-02T00:33:32;99184.28;;;5.97
73734;BMP280;62039;50.000;9.064;2024-03-02T00:35:59;99181.84;;;5.95
73734;BMP280;62039;50.000;9.064;2024-03-02T00:38:27;99183.78;;;5.93
73734;BMP280;62039;50.000;9.064;2024-03-02T00:40:54;99181.34;;;5.92
73734;BMP280;62039;50.000;9.064;2024-03-02T00:43:51;99185.19;;;5.87
73734;BMP280;62039;50.000;9.064;2024-03-02T00:46:20;99186.34;;;5.85
73734;BMP280;62039;50.000;9.064;2024-03-02T00:48:57;99190.88;;;5.83
73734;BMP280;62039;50.000;9.064;2024-03-02T00:51:25;99185.69;;;5.83
73734;BMP280;62039;50.000;9.064;2024-03-02T00:53:54;99184.88;;;5.82
73734;BMP280;62039;50.000;9.064;2024-03-02T00:56:21;99178.06;;;5.81
73734;BMP280;62039;50.000;9.064;2024-03-02T00:58:51;99173.22;;;5.78
73734;BMP280;62039;50.000;9.064;2024-03-02T01:01:19;99174.16;;;5.77
73734;BMP280;62039;50.000;9.064;2024-03-02T01:03:46;99168.47;;;5.74
73734;BMP280;62039;50.000;9.064;2024-03-02T01:06:13;99172.22;;;5.71
73734;BMP280;62039;50.000;9.064;2024-03-02T01:08:40;99163.09;;;5.67
73734;BMP280;62039;50.000;9.064;2024-03-02T01:11:07;99167.00;;;5.63
73734;BMP280;62039;50.000;9.064;2024-03-02T01:13:34;99166.50;;;5.60
73734;BMP280;62039;50.000;9.064;2024-03-02T01:16:05;99164.06;;;5.58
73734;BMP280;62039;50.000;9.064;2024-03-02T01:18:32;99167.63;;;5.57
73734;BMP280;62039;50.000;9.064;2024-03-02T01:20:59;99166.78;;;5.57
73734;BMP280;62039;50.000;9.064;2024-03-02T01:23:26;99164.22;;;5.57
73734;BMP280;62039;50.000;9.064;2024-03-02T01:25:53;99159.03;;;5.57
73734;BMP280;62039;50.000;9.064;2024-03-02T01:28:20;99162.44;;;5.57
73734;BMP280;62039;50.000;9.064;2024-03-02T01:30:47;99164.88;;;5.59
73734;BMP280;62039;50.000;9.064;2024-03-02T01:33:17;99158.06;;;5.58
73734;BMP280;62039;50.000;9.064;2024-03-02T01:35:44;99148.50;;;5.58
73734;BMP280;62039;50.000;9.064;2024-03-02T01:38:11;99151.09;;;5.58
73734;BMP280;62039;50.000;9.064;2024-03-02T01:40:38;99157.09;;;5.59
73734;BMP280;62039;50.000;9.064;2024-03-02T01:43:05;99156.94;;;5.60
73734;BMP280;62039;50.000;9.064;2024-03-02T01:45:33;99163.91;;;5.60
73734;BMP280;62039;50.000;9.064;2024-03-02T01:48:00;99165.50;;;5.61
73734;BMP280;62039;50.000;9.064;2024-03-02T01:50:31;99167.31;;;5.60
73734;BMP280;62039;50.000;9.064;2024-03-02T01:52:59;99169.09;;;5.60
73734;BMP280;62039;50.000;9.064;2024-03-02T01:55:26;99169.25;;;5.58
73734;BMP280;62039;50.000;9.064;2024-03-02T01:57:53;99165.16;;;5.56
73734;BMP280;62039;50.000;9.064;2024-03-02T02:00:21;99162.72;;;5.54
73734;BMP280;62039;50.000;9.064;2024-03-02T02:02:48;99166.31;;;5.53
73734;BMP280;62039;50.000;9.064;2024-03-02T02:05:15;99163.06;;;5.51
73734;BMP280;62039;50.000;9.064;2024-03-02T02:07:45;99154.63;;;5.49
73734;BMP280;62039;50.000;9.064;2024-03-02T02:10:12;99153.00;;;5.48
73734;BMP280;62039;50.000;9.064;2024-03-02T02:12:39;99151.34;;;5.47
73734;BMP280;62039;50.000;9.064;2024-03-02T02:15:22;99148.13;;;5.45
73734;BMP280;62039;50.000;9.064;2024-03-02T02:17:49;99151.69;;;5.44
73734;BMP280;62039;50.000;9.064;2024-03-02T02:20:16;99147.47;;;5.43
73734;BMP280;62039;50.000;9.064;2024-03-02T02:22:55;99142.44;;;5.41
73734;BMP280;62039;50.000;9.064;2024-03-02T02:25:22;99133.84;;;5.41
73734;BMP280;62039;50.000;9.064;2024-03-02T02:27:49;99131.59;;;5.38
73734;BMP280;62039;50.000;9.064;2024-03-02T02:30:19;99135.16;;;5.37
73734;BMP280;62039;50.000;9.064;2024-03-02T02:32:46;99125.09;;;5.34
73734;BMP280;62039;50.000;9.064;2024-03-02T02:35:13;99121.84;;;5.32
73734;BMP280;62039;50.000;9.064;2024-03-02T02:37:41;99119.72;;;5.27
73734;BMP280;62039;50.000;9.064;2024-03-02T02:40:11;99115.69;;;5.25
73734;BMP280;62039;50.000;9.064;2024-03-02T02:42:39;99114.34;;;5.21
73734;BMP280;62039;50.000;9.064;2024-03-02T02:45:07;99115.47;;;5.18
73734;BMP280;62039;50.000;9.064;2024-03-02T02:47:34;99103.66;;;5.16
73734;BMP280;62039;50.000;9.064;2024-03-02T02:50:01;99102.97;;;5.14
73734;BMP280;62039;50.000;9.064;2024-03-02T02:52:31;99098.78;;;5.13
73734;BMP280;62039;50.000;9.064;2024-03-02T02:54:58;99103.28;;;5.10
73734;BMP280;62039;50.000;9.064;2024-03-02T02:57:27;99100.81;;;5.09
73734;BMP280;62039;50.000;9.064;2024-03-02T02:59:54;99102.25;;;5.03
73734;BMP280;62039;50.000;9.064;2024-03-02T03:02:21;99111.94;;;5.01
73734;BMP280;62039;50.000;9.064;2024-03-02T03:04:48;99110.31;;;5.00
73734;BMP280;62039;50.000;9.064;2024-03-02T03:07:15;99105.13;;;5.00
73734;BMP280;62039;50.000;9.064;2024-03-02T03:09:42;99090.75;;;4.98
73734;BMP280;62039;50.000;9.064;2024-03-02T03:12:09;99097.69;;;4.97
73734;BMP280;62039;50.000;9.064;2024-03-02T03:14:40;99102.88;;;4.97
73734;BMP280;62039;50.000;9.064;2024-03-02T03:17:07;99102.88;;;4.97
73734;BMP280;62039;50.000;9.064;2024-03-02T03:19:34;99101.25;;;4.96
73734;BMP280;62039;50.000;9.064;2024-03-02T03:22:01;99102.22;;;4.95
73734;BMP280;62039;50.000;9.064;2024-03-02T03:24:28;99106.56;;;4.95
73734;BMP280;62039;50.000;9.064;2024-03-02T03:26:54;99111.75;;;4.95
73734;BMP280;62039;50.000;9.064;2024-03-02T03:29:21;99107.53;;;4.94
73734;BMP280;62039;50.000;9.064;2024-03-02T03:31:51;99105.13;;;4.92
73734;BMP280;62039;50.000;9.064;2024-03-02T03:34:18;99104.44;;;4.90
73734;BMP280;62039;50.000;9.064;2024-03-02T03:36:45;99102.00;;;4.89
73734;BMP280;62039;50.000;9.064;2024-03-02T03:39:12;99108.31;;;4.86
73734;BMP280;62039;50.000;9.064;2024-03-02T03:41:40;99111.88;;;4.85
73734;BMP280;62039;50.000;9.064;2024-03-02T03:44:07;99109.28;;;4.85
73734;BMP280;62039;50.000;9.064;2024-03-02T03:46:34;99110.25;;;4.84
73734;BMP280;62039;50.000;9.064;2024-03-02T03:49:03;99109.56;;;4.82
73734;BMP280;62039;50.000;9.064;2024-03-02T03:51:30;99113.13;;;4.81
73734;BMP280;62039;50.000;9.064;2024-03-02T03:53:57;99109.88;;;4.79
73734;BMP280;62039;50.000;9.064;2024-03-02T03:56:24;99109.38;;;4.76
73734;BMP280;62039;50.000;9.064;2024-03-02T03:58:51;99115.00;;;4.71
73734;BMP280;62039;50.000;9.064;2024-03-02T04:01:18;99105.75;;;4.68
73734;BMP280;62039;50.000;9.064;2024-03-02T04:03:45;99109.47;;;4.66
73734;BMP280;62039;50.000;9.064;2024-03-02T04:06:14;99116.44;;;4.65
73734;BMP280;62039;50.000;9.064;2024-03-02T04:08:41;99116.56;;;4.64
73734;BMP280;62039;50.000;9.064;2024-03-02T04:11:08;99110.72;;;4.62
73734;BMP280;62039;50.000;9.064;2024-03-02T04:13:35;99111.69;;;4.61
73734;BMP280;62039;50.000;9.064;2024-03-02T04:16:03;99108.59;;;4.57
73734;BMP280;62039;50.000;9.064;2024-03-02T04:18:30;99115.53;;;4.57
73734;BMP280;62039;50.000;9.064;2024-03-02T04:20:57;99103.72;;;4.54
73734;BMP280;62039;50.000;9.064;2024-03-02T04:23:27;99108.25;;;4.52
73734;BMP280;62039;50.000;9.064;2024-03-02T04:25:54;99094.66;;;4.50
73734;BMP280;62039;50.000;9.064;2024-03-02T04:28:21;99098.31;;;4.48
73734;BMP280;62039;50.000;9.064;2024-03-02T04:30:48;99102.84;;;4.46
73734;BMP280;62039;50.000;9.064;2024-03-02T04:33:15;99102.19;;;4.44
73734;BMP280;62039;50.000;9.064;2024-03-02T04:35:42;99105.72;;;4.43
73734;BMP280;62039;50.000;9.064;2024-03-02T04:38:09;99110.09;;;4.42
73734;BMP280;62039;50.000;9.064;2024-03-02T04:40:38;99110.22;;;4.41
73734;BMP280;62039;50.000;9.064;2024-03-02T04:43:05;99113.78;;;4.40
73734;BMP280;62039;50.000;9.064;2024-03-02T04:45:33;99118.00;;;4.41
73734;BMP280;62039;50.000;9.064;2024-03-02T04:48:00;99107.78;;;4.39
73734;BMP280;62039;50.000;9.064;2024-03-02T04:50:26;99109.41;;;4.40
73734;BMP280;62039;50.000;9.064;2024-03-02T04:52:53;99115.41;;;4.41
73734;BMP280;62039;50.000;9.064;2024-03-02T04:55:20;99115.41;;;4.41
73734;BMP280;62039;50.000;9.064;2024-03-02T04:57:50;99111.88;;;4.42
73734;BMP280;62039;50.000;9.064;2024-03-02T05:00:17;99110.09;;;4.42
73734;BMP280;62039;50.000;9.064;2024-03-02T05:02:44;99117.03;;;4.42
73734;BMP280;62039;50.000;9.064;2024-03-02T05:05:11;99108.31;;;4.43
73734;BMP280;62039;50.000;9.064;2024-03-02T05:07:38;99117.03;;;4.42
73734;BMP280;62039;50.000;9.064;2024-03-02T05:10:06;99117.03;;;4.42
73734;BMP280;62039;50.000;9.064;2024-03-02T05:12:33;99117.84;;;4.42
73734;BMP280;62039;50.000;9.064;2024-03-02T05:15:03;99117.03;;;4.42
73734;BMP280;62039;50.000;9.064;2024-03-02T05:17:30;99122.19;;;4.42
73734;BMP280;62039;50.000;9.064;2024-03-02T05:19:57;99124.78;;;4.42
73734;BMP280;62039;50.000;9.064;2024-03-02T05:22:24;99119.63;;;4.42
73734;BMP280;62039;50.000;9.064;2024-03-02T05:24:51;99120.56;;;4.41
73734;BMP280;62039;50.000;9.064;2024-03-02T05:27:18;99131.88;;;4.40
73734;BMP280;62039;50.000;9.064;2024-03-02T05:29:45;99126.88;;;4.38
73734;BMP280;62039;50.000;9.064;2024-03-02T05:32:14;99118.94;;;4.40
73734;BMP280;62039;50.000;9.064;2024-03-02T05:34:41;99121.69;;;4.38
73734;BMP280;62039;50.000;9.064;2024-03-02T05:37:08;99124.44;;;4.37
73734;BMP280;62039;50.000;9.064;2024-03-02T05:39:35;99122.81;;;4.36
73734;BMP280;62039;50.000;9.064;2024-03-02T05:42:02;99127.97;;;4.36
73734;BMP280;62039;50.000;9.064;2024-03-02T05:44:29;99120.34;;;4.34
73734;BMP280;62039;50.000;9.064;2024-03-02T05:46:56;99134.25;;;4.33
73734;BMP280;62039;50.000;9.064;2024-03-02T05:49:25;99133.44;;;4.32
73734;BMP280;62039;50.000;9.064;2024-03-02T05:51:52;99136.19;;;4.31
73734;BMP280;62039;50.000;9.064;2024-03-02T05:54:20;99133.75;;;4.29
73734;BMP280;62039;50.000;9.064;2024-03-02T05:56:46;99145.84;;;4.29
73734;BMP280;62039;50.000;9.064;2024-03-02T05:59:14;99152.78;;;4.28
73734;BMP280;62039;50.000;9.064;2024-03-02T06:01:42;99152.78;;;4.28
73734;BMP280;62039;50.000;9.064;2024-03-02T06:04:09;99161.50;;;4.27
73734;BMP280;62039;50.000;9.064;2024-03-02T06:06:39;99163.28;;;4.27
73734;BMP280;62039;50.000;9.064;2024-03-02T06:09:07;99171.03;;;4.27
73734;BMP280;62039;50.000;9.064;2024-03-02T06:11:35;99176.19;;;4.27
73734;BMP280;62039;50.000;9.064;2024-03-02T06:14:02;99170.06;;;4.28
73734;BMP280;62039;50.000;9.064;2024-03-02T06:16:29;99164.91;;;4.28
73734;BMP280;62039;50.000;9.064;2024-03-02T06:18:55;99184.63;;;4.29
73734;BMP280;62039;50.000;9.064;2024-03-02T06:21:23;99180.28;;;4.29
73734;BMP280;62039;50.000;9.064;2024-03-02T06:23:52;99175.09;;;4.29
73734;BMP280;62039;50.000;9.064;2024-03-02T06:26:19;99174.28;;;4.29
73734;BMP280;62039;50.000;9.064;2024-03-02T06:28:51;99177.69;;;4.29
73734;BMP280;62039;50.000;9.064;2024-03-02T06:31:18;99184.50;;;4.30
73734;BMP280;62039;50.000;9.064;2024-03-02T06:33:45;99184.50;;;4.30
73734;BMP280;62039;50.000;9.064;2024-03-02T06:36:12;99183.53;;;4.32
73734;BMP280;62039;50.000;9.064;2024-03-02T06:38:39;99184.50;;;4.30
73734;BMP280;62039;50.000;9.064;2024-03-02T06:41:11;99181.91;;;4.30
73734;BMP280;62039;50.000;9.064;2024-03-02T06:43:38;99182.19;;;4.27
73734;BMP280;62039;50.000;9.064;2024-03-02T06:46:05;99174.44;;;4.27
73734;BMP280;62039;50.000;9.064;2024-03-02T06:48:32;99177.00;;;4.27
73734;BMP280;62039;50.000;9.064;2024-03-02T06:50:59;99172.66;;;4.28
73734;BMP280;62039;50.000;9.064;2024-03-02T06:53:26;99176.19;;;4.27
73734;BMP280;62039;50.000;9.064;2024-03-02T06:55:52;99178.63;;;4.28
73734;BMP280;62039;50.000;9.064;2024-03-02T06:58:22;99184.63;;;4.29
73734;BMP280;62039;50.000;9.064;2024-03-02T07:00:49;99178.50;;;4.30
73734;BMP280;62039;50.000;9.064;2024-03-02T07:03:16;99174.16;;;4.30
73734;BMP280;62039;50.000;9.064;2024-03-02T07:05:43;99181.75;;;4.32
73734;BMP280;62039;50.000;9.064;2024-03-02T07:08:10;99183.53;;;4.32
73734;BMP280;62039;50.000;9.064;2024-03-02T07:10:37;99182.53;;;4.32
73734;BMP280;62039;50.000;9.064;2024-03-02T07:13:04;99188.41;;;4.35
73734;BMP280;62039;50.000;9.064;2024-03-02T07:15:33;99188.09;;;4.38
73734;BMP280;62039;50.000;9.064;2024-03-02T07:18:00;99182.50;;;4.42
73734;BMP280;62039;50.000;9.064;2024-03-02T07:20:27;99189.16;;;4.45
73734;BMP280;62039;50.000;9.064;2024-03-02T07:22:54;99185.59;;;4.46
73734;BMP280;62039;50.000;9.064;2024-03-02T07:25:21;99189.66;;;4.48
73734;BMP280;62039;50.000;9.064;2024-03-02T07:27:51;99197.28;;;4.50
73734;BMP280;62039;50.000;9.064;2024-03-02T07:30:18;99202.13;;;4.53
73734;BMP280;62039;50.000;9.064;2024-03-02T07:32:50;99198.31;;;4.57
73734;BMP280;62039;50.000;9.064;2024-03-02T07:35:16;99203.16;;;4.60
73734;BMP280;62039;50.000;9.064;2024-03-02T07:37:44;99204.19;;;4.67
73734;BMP280;62039;50.000;9.064;2024-03-02T07:40:11;99203.59;;;4.73
73734;BMP280;62039;50.000;9.064;2024-03-02T07:42:39;99214.16;;;4.80
73734;BMP280;62039;50.000;9.064;2024-03-02T07:45:07;99213.41;;;4.87
73734;BMP280;62039;50.000;9.064;2024-03-02T07:47:34;99210.22;;;4.93
73734;BMP280;62039;50.000;9.064;2024-03-02T07:50:04;99216.44;;;5.00
73734;BMP280;62039;50.000;9.064;2024-03-02T07:52:31;99202.25;;;5.04
73734;BMP280;62039;50.000;9.064;2024-03-02T07:54:58;99212.00;;;5.10
73734;BMP280;62039;50.000;9.064;2024-03-02T07:57:25;99204.59;;;5.16
73734;BMP280;62039;50.000;9.064;2024-03-02T07:59:52;99217.09;;;5.20
73734;BMP280;62039;50.000;9.064;2024-03-02T08:02:19;99211.47;;;5.25
73734;BMP280;62039;50.000;9.064;2024-03-02T08:04:46;99211.81;;;5.30
73734;BMP280;62039;50.000;9.064;2024-03-02T08:07:16;99201.16;;;5.33
73734;BMP280;62039;50.000;9.064;2024-03-02T08:09:43;99205.06;;;5.37
73734;BMP280;62039;50.000;9.064;2024-03-02T08:12:10;99198.31;;;5.44
73734;BMP280;62039;50.000;9.064;2024-03-02T08:14:37;99203.16;;;5.47
73734;BMP280;62039;50.000;9.064;2024-03-02T08:17:04;99207.09;;;5.51
73734;BMP280;62039;50.000;9.064;2024-03-02T08:19:31;99199.66;;;5.56
73734;BMP280;62039;50.000;9.064;2024-03-02T08:21:58;99206.97;;;5.61
73734;BMP280;62039;50.000;9.064;2024-03-02T08:24:27;99213.31;;;5.66
73734;BMP280;62039;50.000;9.064;2024-03-02T08:26:55;99210.94;;;5.73
73734;BMP280;62039;50.000;9.064;2024-03-02T08:29:21;99212.88;;;5.79
73734;BMP280;62039;50.000;9.064;2024-03-02T08:31:48;99213.88;;;5.86
73734;BMP280;62039;50.000;9.064;2024-03-02T08:34:15;99214.38;;;5.89
73734;BMP280;62039;50.000;9.064;2024-03-02T08:36:42;99226.06;;;5.94
73734;BMP280;62039;50.000;9.064;2024-03-02T08:39:10;99216.84;;;5.99
73734;BMP280;62039;50.000;9.064;2024-03-02T08:41:39;99212.81;;;6.05
73734;BMP280;62039;50.000;9.064;2024-03-02T08:44:06;99213.81;;;6.12
73734;BMP280;62039;50.000;9.064;2024-03-02T08:46:33;99218.38;;;6.18
73734;BMP280;62039;50.000;9.064;2024-03-02T08:49:00;99219.34;;;6.25
73734;BMP280;62039;50.000;9.064;2024-03-02T08:51:27;99225.53;;;6.32
73734;BMP280;62039;50.000;9.064;2024-03-02T08:53:54;99217.00;;;6.40
73734;BMP280;62039;50.000;9.064;2024-03-02T08:56:21;99222.34;;;6.46
73734;BMP280;62039;50.000;9.064;2024-03-02T08:58:51;99211.00;;;6.55
73734;BMP280;62039;50.000;9.064;2024-03-02T09:01:18;99216.34;;;6.62
73734;BMP280;62039;50.000;9.064;2024-03-02T09:03:45;99224.97;;;6.71
73734;BMP280;62039;50.000;9.064;2024-03-02T09:06:13;99216.22;;;6.80
73734;BMP280;62039;50.000;9.064;2024-03-02T09:08:40;99227.44;;;6.88
73734;BMP280;62039;50.000;9.064;2024-03-02T09:11:07;99222.88;;;6.98
73734;BMP280;62039;50.000;9.064;2024-03-02T09:13:34;99225.94;;;7.10
73734;BMP280;62039;50.000;9.064;2024-03-02T09:16:04;99222.00;;;7.22
73734;BMP280;62039;50.000;9.064;2024-03-02T09:18:31;99220.88;;;7.33
73734;BMP280;62039;50.000;9.064;2024-03-02T09:20:58;99220.69;;;7.42
73734;BMP280;62039;50.000;9.064;2024-03-02T09:23:25;99218.75;;;7.53
73734;BMP280;62039;50.000;9.064;2024-03-02T09:25:52;99221.78;;;7.64
73734;BMP280;62039;50.000;9.064;2024-03-02T09:28:18;99220.28;;;7.78
73734;BMP280;62039;50.000;9.064;2024-03-02T09:30:45;99211.13;;;7.90
73734;BMP280;62039;50.000;9.064;2024-03-02T09:33:15;99208.78;;;8.03
73734;BMP280;62039;50.000;9.064;2024-03-02T09:35:43;99203.06;;;8.16
73734;BMP280;62039;50.000;9.064;2024-03-02T09:38:10;99205.09;;;8.29
73734;BMP280;62039;50.000;9.064;2024-03-02T09:40:37;99205.94;;;8.44
73734;BMP280;62039;50.000;9.064;2024-03-02T09:43:04;99206.19;;;8.57
73734;BMP280;62039;50.000;9.064;2024-03-02T09:45:31;99196.06;;;8.70
73734;BMP280;62039;50.000;9.064;2024-03-02T09:47:59;99199.88;;;8.82
73734;BMP280;62039;50.000;9.064;2024-03-02T09:50:29;99194.88;;;8.95
73734;BMP280;62039;50.000;9.064;2024-03-02T09:52:56;99193.44;;;9.08
73734;BMP280;62039;50.000;9.064;2024-03-02T09:55:23;99195.25;;;9.22
73734;BMP280;62039;50.000;9.064;2024-03-02T09:57:50;99195.09;;;9.38
73734;BMP280;62039;50.000;9.064;2024-03-02T10:00:18;99187.09;;;9.54
73734;BMP280;62039;50.000;9.064;2024-03-02T10:02:45;99194.75;;;9.70
73734;BMP280;62039;50.000;9.064;2024-03-02T10:05:12;99180.53;;;9.88
73734;BMP280;62039;50.000;9.064;2024-03-02T10:07:41;99191.34;;;10.06
73734;BMP280;62039;50.000;9.064;2024-03-02T10:10:16;99193.38;;;10.25
73734;BMP280;62039;50.000;9.064;2024-03-02T10:12:43;99182.72;;;10.41
73734;BMP280;62039;50.000;9.064;2024-03-02T10:15:10;99181.13;;;10.62
73734;BMP280;62039;50.000;9.064;2024-03-02T10:17:37;99180.88;;;10.78
73734;BMP280;62039;50.000;9.064;2024-03-02T10:20:22;99182.81;;;10.97
73734;BMP280;62039;50.000;9.064;2024-03-02T10:22:51;99172.69;;;11.15
73734;BMP280;62039;50.000;9.064;2024-03-02T10:25:31;99173.00;;;11.33
73734;BMP280;62039;50.000;9.064;2024-03-02T10:28:13;99168.31;;;11.50
73734;BMP280;62039;50.000;9.064;2024-03-02T10:30:40;99168.56;;;11.68
73734;BMP280;62039;50.000;9.064;2024-03-02T10:33:07;99163.84;;;11.85
73734;BMP280;62039;50.000;9.064;2024-03-02T10:35:34;99165.69;;;12.04
73734;BMP280;62039;50.000;9.064;2024-03-02T10:38:04;99158.69;;;12.25
73734;BMP280;62039;50.000;9.064;2024-03-02T10:40:31;99146.84;;;12.42
73734;BMP280;62039;50.000;9.064;2024-03-02T10:42:58;99153.13;;;12.61
73734;BMP280;62039;50.000;9.064;2024-03-02T10:45:27;99157.75;;;12.78
73734;BMP280;62039;50.000;9.064;2024-03-02T10:47:55;99144.84;;;12.96
73734;BMP280;62039;50.000;9.064;2024-03-02T10:50:22;99140.78;;;13.14
73734;BMP280;62039;50.000;9.064;2024-03-02T10:52:50;99144.19;;;13.34
73734;BMP280;62039;50.000;9.064;2024-03-02T10:55:20;99142.72;;;13.51
73734;BMP280;62039;50.000;9.064;2024-03-02T10:57:50;99139.84;;;13.66
73734;BMP280;62039;50.000;9.064;2024-03-02T11:00:18;99135.34;;;13.80
73734;BMP280;62039;50.000;9.064;2024-03-02T11:02:50;99130.41;;;13.96
73734;BMP280;62039;50.000;9.064;2024-03-02T11:05:25;99128.97;;;14.07
73734;BMP280;62039;50.000;9.064;2024-03-02T11:07:57;99120.00;;;14.21
73734;BMP280;62039;50.000;9.064;2024-03-02T11:10:35;99116.47;;;14.34
73734;BMP280;62039;50.000;9.064;2024-03-02T11:13:05;99123.44;;;14.46
73734;BMP280;62039;50.000;9.064;2024-03-02T11:15:34;99119.09;;;14.59
73734;BMP280;62039;50.000;9.064;2024-03-02T11:18:13;99108.06;;;14.75
73734;BMP280;62039;50.000;9.064;2024-03-02T11:20:41;99114.81;;;14.89
73734;BMP280;62039;50.000;9.064;2024-03-02T11:23:09;99114.22;;;15.05
73734;BMP280;62039;50.000;9.064;2024-03-02T11:25:36;99112.06;;;15.20
73734;BMP280;62039;50.000;9.064;2024-03-02T11:28:04;99115.69;;;15.38
73734;BMP280;62039;50.000;9.064;2024-03-02T11:30:49;99107.84;;;15.56
73734;BMP280;62039;50.000;9.064;2024-03-02T11:33:23;99097.25;;;15.74
73734;BMP280;62039;50.000;9.064;2024-03-02T11:35:50;99099.03;;;15.92
73734;BMP280;62039;50.000;9.064;2024-03-02T11:38:18;99087.66;;;16.09
73734;BMP280;62039;50.000;9.064;2024-03-02T11:40:45;99092.53;;;16.24
73734;BMP280;62039;50.000;9.064;2024-03-02T11:43:12;99086.25;;;16.37
73734;BMP280;62039;50.000;9.064;2024-03-02T11:45:42;99083.13;;;16.52
73734;BMP280;62039;50.000;9.064;2024-03-02T11:48:11;99082.13;;;16.64
73734;BMP280;62039;50.000;9.064;2024-03-02T11:50:46;99074.53;;;16.79
73734;BMP280;62039;50.000;9.064;2024-03-02T11:53:14;99065.88;;;16.91
73734;BMP280;62039;50.000;9.064;2024-03-02T11:55:41;99066.66;;;17.03
73734;BMP280;62039;50.000;9.064;2024-03-02T11:58:09;99062.94;;;17.15
73734;BMP280;62039;50.000;9.064;2024-03-02T12:00:36;99063.47;;;17.29
73734;BMP280;62039;50.000;9.064;2024-03-02T12:03:05;99060.56;;;17.42
73734;BMP280;62039;50.000;9.064;2024-03-02T12:05:33;99058.25;;;17.57
73734;BMP280;62039;50.000;9.064;2024-03-02T12:08:04;99053.25;;;17.73
73734;BMP280;62039;50.000;9.064;2024-03-02T12:10:32;99043.97;;;17.87
73734;BMP280;62039;50.000;9.064;2024-03-02T12:12:59;99034.69;;;18.01
73734;BMP280;62039;50.000;9.064;2024-03-02T12:15:28;99035.75;;;18.17
73734;BMP280;62039;50.000;9.064;2024-03-02T12:17:55;99028.56;;;18.29
73734;BMP280;62039;50.000;9.064;2024-03-02T12:20:22;99026.38;;;18.42
73734;BMP280;62039;50.000;9.064;2024-03-02T12:22:50;99026.28;;;18.54
73734;BMP280;62039;50.000;9.064;2024-03-02T12:25:20;99015.13;;;18.69
73734;BMP280;62039;50.000;9.064;2024-03-02T12:27:49;99016.88;;;18.80
73734;BMP280;62039;50.000;9.064;2024-03-02T12:30:17;99014.56;;;18.89
73734;BMP280;62039;50.000;9.064;2024-03-02T12:32:44;99001.19;;;18.95
73734;BMP280;62039;50.000;9.064;2024-03-02T12:35:12;99005.25;;;19.03
73734;BMP280;62039;50.000;9.064;2024-03-02T12:37:44;98993.19;;;19.12
73734;BMP280;62039;50.000;9.064;2024-03-02T12:40:11;98981.38;;;19.19
73734;BMP280;62039;50.000;9.064;2024-03-02T12:42:41;98990.22;;;19.30
73734;BMP280;62039;50.000;9.064;2024-03-02T12:45:08;98981.31;;;19.41
73734;BMP280;62039;50.000;9.064;2024-03-02T12:47:35;98983.84;;;19.53
73734;BMP280;62039;50.000;9.064;2024-03-02T12:50:04;98980.25;;;19.64
73734;BMP280;62039;50.000;9.064;2024-03-02T12:52:31;98977.94;;;19.73
73734;BMP280;62039;50.000;9.064;2024-03-02T12:55:02;98966.88;;;19.81
73734;BMP280;62039;50.000;9.064;2024-03-02T12:57:30;98960.28;;;19.88
73734;BMP280;62039;50.000;9.064;2024-03-02T13:00:03;98964.31;;;19.96
73734;BMP280;62039;50.000;9.064;2024-03-02T13:02:31;98969.97;;;20.05
73734;BMP280;62039;50.000;9.064;2024-03-02T13:04:58;98961.78;;;20.11
73734;BMP280;62039;50.000;9.064;2024-03-02T13:07:25;98962.94;;;20.20
73734;BMP280;62039;50.000;9.064;2024-03-02T13:09:52;98960.59;;;20.29
73734;BMP280;62039;50.000;9.064;2024-03-02T13:12:20;98956.41;;;20.38
73734;BMP280;62039;50.000;9.064;2024-03-02T13:14:48;98942.13;;;20.44
73734;BMP280;62039;50.000;9.064;2024-03-02T13:17:18;98939.50;;;20.49
73734;BMP280;62039;50.000;9.064;2024-03-02T13:19:52;98943.78;;;20.55
73734;BMP280;62039;50.000;9.064;2024-03-02T13:22:19;98941.16;;;20.60
73734;BMP280;62039;50.000;9.064;2024-03-02T13:24:46;98939.06;;;20.67
73734;BMP280;62039;50.000;9.064;2024-03-02T13:27:13;98943.31;;;20.73
73734;BMP280;62039;50.000;9.064;2024-03-02T13:29:40;98937.56;;;20.82
73734;BMP280;62039;50.000;9.064;2024-03-02T13:32:07;98926.16;;;20.91
73734;BMP280;62039;50.000;9.064;2024-03-02T13:34:36;98928.56;;;20.98
73734;BMP280;62039;50.000;9.064;2024-03-02T13:37:03;98921.41;;;21.03
73734;BMP280;62039;50.000;9.064;2024-03-02T13:39:30;98926.75;;;21.08
73734;BMP280;62039;50.000;9.064;2024-03-02T13:41:58;98925.41;;;21.11
73734;BMP280;62039;50.000;9.064;2024-03-02T13:44:25;98912.69;;;21.13
73734;BMP280;62039;50.000;9.064;2024-03-02T13:46:52;98925.44;;;21.16
73734;BMP280;62039;50.000;9.064;2024-03-02T13:49:18;98921.19;;;21.20
73734;BMP280;62039;50.000;9.064;2024-03-02T13:51:48;98929.41;;;21.24
73734;BMP280;62039;50.000;9.064;2024-03-02T13:54:15;98921.19;;;21.25
73734;BMP280;62039;50.000;9.064;2024-03-02T13:56:42;98921.97;;;21.26
73734;BMP280;62039;50.000;9.064;2024-03-02T13:59:09;98922.22;;;21.24
73734;BMP280;62039;50.000;9.064;2024-03-02T14:01:36;98915.88;;;21.20
73734;BMP280;62039;50.000;9.064;2024-03-02T14:04:03;98911.34;;;21.15
73734;BMP280;62039;50.000;9.064;2024-03-02T14:06:30;98903.38;;;21.10
73734;BMP280;62039;50.000;9.064;2024-03-02T14:09:00;98905.75;;;21.07
73734;BMP280;62039;50.000;9.064;2024-03-02T14:11:27;98915.28;;;20.98
73734;BMP280;62039;50.000;9.064;2024-03-02T14:13:54;98907.31;;;20.88
73734;BMP280;62039;50.000;9.064;2024-03-02T14:16:21;98908.88;;;20.79
73734;BMP280;62039;50.000;9.064;2024-03-02T14:18:48;98901.38;;;20.70
73734;BMP280;62039;50.000;9.064;2024-03-02T14:21:15;98902.97;;;20.61